Time,TemperatureF,DewpointF,PressureIn,WindDirection,WindDirectionDegrees,WindSpeedMPH,WindSpeedGustMPH,Humidity,HourlyPrecipIn,Conditions,Clouds,dailyrainin,SoftwareType,DateUTC
2013-03-16 00:10:00,28.6,21.3,29.74,SE,127,0.9,1.8,74,0.00,,,0.00,WUHU216HW,2013-03-16 04:10:00,
2013-03-16 00:25:00,28.6,20.2,29.75,SSW,206,1.6,4.0,70,0.00,,,0.00,WUHU216HW,2013-03-16 04:25:00,
2013-03-16 00:40:00,28.3,19.8,29.75,ESE,106,1.0,3.4,70,0.00,,,0.00,WUHU216HW,2013-03-16 04:40:00,
2013-03-16 00:55:00,28.3,18.4,29.76,West,272,1.8,6.9,66,0.00,,,0.00,WUHU216HW,2013-03-16 04:55:00,
2013-03-16 01:10:00,27.7,17.5,29.76,WNW,299,1.8,8.1,65,0.00,,,0.00,WUHU216HW,2013-03-16 05:10:00,
2013-03-16 01:25:00,27.4,17.1,29.76,NW,322,2.0,8.3,65,0.00,,,0.00,WUHU216HW,2013-03-16 05:25:00,
2013-03-16 01:40:00,27.2,16.6,29.77,WNW,303,1.4,4.7,64,0.00,,,0.00,WUHU216HW,2013-03-16 05:40:00,
2013-03-16 01:55:00,27.0,16.0,29.77,WNW,295,1.7,6.3,63,0.00,,,0.00,WUHU216HW,2013-03-16 05:55:00,
2013-03-16 02:10:00,27.0,15.7,29.78,WNW,302,2.6,8.3,62,0.00,,,0.00,WUHU216HW,2013-03-16 06:10:00,
2013-03-16 02:25:00,26.8,15.8,29.79,WNW,299,1.8,6.0,63,0.00,,,0.00,WUHU216HW,2013-03-16 06:25:00,
2013-03-16 02:40:00,26.6,15.7,29.79,NW,323,1.2,3.1,63,0.00,,,0.00,WUHU216HW,2013-03-16 06:40:00,
2013-03-16 02:55:00,26.6,16.0,29.79,NNW,334,0.7,2.0,64,0.00,,,0.00,WUHU216HW,2013-03-16 06:55:00,
2013-03-16 03:10:00,26.3,15.7,29.80,North,351,0.8,2.2,64,0.00,,,0.00,WUHU216HW,2013-03-16 07:10:00,
2013-03-16 03:25:00,26.3,16.4,29.80,North,5,0.6,2.2,66,0.00,,,0.00,WUHU216HW,2013-03-16 07:25:00,
2013-03-16 03:40:00,26.3,16.4,29.80,North,350,1.0,4.7,66,0.00,,,0.00,WUHU216HW,2013-03-16 07:40:00,
2013-03-16 03:55:00,26.1,16.6,29.80,NW,304,0.7,1.3,67,0.00,,,0.00,WUHU216HW,2013-03-16 07:55:00,
2013-03-16 04:10:00,25.9,16.7,29.80,East,96,0.8,4.0,68,0.00,,,0.00,WUHU216HW,2013-03-16 08:10:00,
2013-03-16 04:25:00,25.9,18.1,29.81,NNW,339,1.0,4.0,72,0.00,,,0.00,WUHU216HW,2013-03-16 08:25:00,
2013-03-16 04:40:00,25.6,17.7,29.81,NW,304,1.0,2.7,72,0.00,,,0.00,WUHU216HW,2013-03-16 08:40:00,
2013-03-16 04:55:00,25.4,17.6,29.81,NE,56,0.5,1.8,72,0.00,,,0.00,WUHU216HW,2013-03-16 08:55:00,
2013-03-16 05:10:00,25.2,17.4,29.82,ESE,104,0.4,0.7,72,0.00,,,0.00,WUHU216HW,2013-03-16 09:10:00,
2013-03-16 05:25:00,24.8,17.4,29.82,SW,214,0.8,2.2,73,0.00,,,0.00,WUHU216HW,2013-03-16 09:25:00,
2013-03-16 05:40:00,24.8,17.6,29.83,West,278,0.6,1.1,74,0.00,,,0.00,WUHU216HW,2013-03-16 09:40:00,
2013-03-16 05:55:00,24.5,17.6,29.84,SSE,147,0.6,1.3,75,0.00,,,0.00,WUHU216HW,2013-03-16 09:55:00,
2013-03-16 06:10:00,24.5,18.3,29.85,SSW,195,0.4,0.4,77,0.00,,,0.00,WUHU216HW,2013-03-16 10:10:00,
2013-03-16 06:25:00,24.5,18.3,29.86,WNW,296,0.9,3.6,77,0.00,,,0.00,WUHU216HW,2013-03-16 10:25:00,
2013-03-16 06:40:00,24.5,18.3,29.87,SW,221,0.7,1.8,77,0.00,,,0.00,WUHU216HW,2013-03-16 10:40:00,
2013-03-16 06:55:00,24.7,18.5,29.87,ENE,69,0.5,1.1,77,0.00,,,0.00,WUHU216HW,2013-03-16 10:55:00,
2013-03-16 07:10:00,24.5,18.3,29.87,WNW,303,0.3,0.4,77,0.00,,,0.00,WUHU216HW,2013-03-16 11:10:00,
2013-03-16 07:25:00,24.7,18.8,29.88,ENE,68,0.2,0.2,78,0.00,,,0.00,WUHU216HW,2013-03-16 11:25:00,
2013-03-16 07:40:00,24.7,18.5,29.88,SSW,203,0.4,0.4,77,0.00,,,0.00,WUHU216HW,2013-03-16 11:40:00,
2013-03-16 07:55:00,24.7,18.5,29.89,SSW,213,0.5,1.1,77,0.00,,,0.00,WUHU216HW,2013-03-16 11:55:00,
2013-03-16 08:11:00,24.5,17.6,29.90,NNW,331,1.2,3.1,75,0.00,,,0.00,WUHU216HW,2013-03-16 12:11:00,
2013-03-16 08:26:00,24.5,17.4,29.90,NNW,327,1.0,3.4,74,0.00,,,0.00,WUHU216HW,2013-03-16 12:26:00,
2013-03-16 08:41:00,24.8,17.4,29.90,SSE,158,0.4,1.1,73,0.00,,,0.00,WUHU216HW,2013-03-16 12:41:00,
2013-03-16 08:56:00,26.5,18.3,29.90,WNW,292,1.4,3.8,71,0.00,,,0.00,WUHU216HW,2013-03-16 12:56:00,
2013-03-16 09:11:00,27.7,18.5,29.90,West,281,1.8,3.8,68,0.00,,,0.00,WUHU216HW,2013-03-16 13:11:00,
2013-03-16 09:26:00,29.2,18.1,29.91,WNW,302,1.8,5.1,63,0.00,,,0.00,WUHU216HW,2013-03-16 13:26:00,
2013-03-16 09:41:00,30.1,18.5,29.91,NW,309,1.9,6.0,62,0.00,,,0.00,WUHU216HW,2013-03-16 13:41:00,
2013-03-16 09:56:00,30.6,18.4,29.91,SW,232,1.9,6.9,60,0.00,,,0.00,WUHU216HW,2013-03-16 13:56:00,
2013-03-16 10:11:00,31.3,17.8,29.90,SW,228,2.0,5.1,57,0.00,,,0.00,WUHU216HW,2013-03-16 14:11:00,
2013-03-16 10:26:00,32.0,18.1,29.91,South,191,2.2,5.6,56,0.00,,,0.00,WUHU216HW,2013-03-16 14:26:00,
2013-03-16 10:41:00,31.9,16.2,29.90,SW,214,2.6,5.1,52,0.00,,,0.00,WUHU216HW,2013-03-16 14:41:00,
2013-03-16 10:56:00,32.8,17.0,29.90,South,189,2.3,5.4,52,0.00,,,0.00,WUHU216HW,2013-03-16 14:56:00,
2013-03-16 11:11:00,34.0,16.7,29.90,West,273,2.6,5.8,49,0.00,,,0.00,WUHU216HW,2013-03-16 15:11:00,
2013-03-16 11:26:00,33.3,15.1,29.90,SSW,198,3.8,9.8,47,0.00,,,0.00,WUHU216HW,2013-03-16 15:26:00,
2013-03-16 11:41:00,33.7,15.0,29.90,SSW,213,3.3,6.0,46,0.00,,,0.00,WUHU216HW,2013-03-16 15:41:00,
2013-03-16 11:57:00,34.6,15.8,29.90,WSW,242,3.2,8.1,46,0.00,,,0.00,WUHU216HW,2013-03-16 15:57:00,
2013-03-16 12:12:00,33.5,14.2,29.90,South,191,3.0,7.2,45,0.00,,,0.00,WUHU216HW,2013-03-16 16:12:00,
2013-03-16 12:27:00,32.9,13.8,29.89,South,188,3.7,8.3,45,0.00,,,0.00,WUHU216HW,2013-03-16 16:27:00,
2013-03-16 12:42:00,33.5,13.8,29.89,South,191,2.9,6.3,44,0.00,,,0.00,WUHU216HW,2013-03-16 16:42:00,
2013-03-16 12:57:00,33.7,14.4,29.89,South,184,2.7,5.6,45,0.00,,,0.00,WUHU216HW,2013-03-16 16:57:00,
2013-03-16 13:12:00,33.8,14.6,29.89,SW,217,3.2,6.7,45,0.00,,,0.00,WUHU216HW,2013-03-16 17:12:00,
2013-03-16 13:27:00,34.2,14.4,29.89,SW,219,3.0,8.5,44,0.00,,,0.00,WUHU216HW,2013-03-16 17:27:00,
2013-03-16 13:42:00,34.9,15.6,29.88,SW,221,3.3,9.6,45,0.00,,,0.00,WUHU216HW,2013-03-16 17:42:00,
2013-03-16 13:57:00,35.1,14.8,29.88,SW,230,2.6,6.5,43,0.00,,,0.00,WUHU216HW,2013-03-16 17:57:00,
2013-03-16 14:12:00,35.6,15.2,29.88,SSW,197,3.3,7.8,43,0.00,,,0.00,WUHU216HW,2013-03-16 18:12:00,
2013-03-16 14:27:00,35.3,14.4,29.88,SW,221,2.8,7.6,42,0.00,,,0.00,WUHU216HW,2013-03-16 18:27:00,
2013-03-16 14:42:00,35.3,15.0,29.88,SW,229,2.6,6.0,43,0.00,,,0.00,WUHU216HW,2013-03-16 18:42:00,
2013-03-16 14:57:00,34.9,14.6,29.88,WNW,295,2.3,5.6,43,0.00,,,0.00,WUHU216HW,2013-03-16 18:57:00,
2013-03-16 15:12:00,34.2,14.0,29.88,WNW,301,2.0,6.0,43,0.00,,,0.00,WUHU216HW,2013-03-16 19:12:00,
2013-03-16 15:27:00,33.3,13.6,29.88,SSW,208,1.5,4.9,44,0.00,,,0.00,WUHU216HW,2013-03-16 19:27:00,
2013-03-16 15:42:00,32.8,13.2,29.89,West,274,2.1,5.4,44,0.00,,,0.00,WUHU216HW,2013-03-16 19:42:00,
2013-03-16 15:57:00,32.0,13.0,29.89,WSW,244,1.7,5.1,45,0.00,,,0.00,WUHU216HW,2013-03-16 19:57:00,
2013-03-16 16:12:00,31.7,13.1,29.89,WNW,293,1.7,4.3,46,0.00,,,0.00,WUHU216HW,2013-03-16 20:12:00,
2013-03-16 16:27:00,31.5,13.0,29.89,West,268,1.8,4.7,46,0.00,,,0.00,WUHU216HW,2013-03-16 20:27:00,
2013-03-16 16:42:00,31.0,12.5,29.88,WSW,239,2.2,7.4,46,0.00,,,0.00,WUHU216HW,2013-03-16 20:42:00,
2013-03-16 16:57:00,30.6,12.7,29.88,WSW,248,2.9,8.7,47,0.00,,,0.00,WUHU216HW,2013-03-16 20:57:00,
2013-03-16 17:12:00,30.4,12.5,29.88,WNW,290,1.6,5.1,47,0.00,,,0.00,WUHU216HW,2013-03-16 21:12:00,
2013-03-16 17:27:00,30.2,12.9,29.88,West,260,1.3,4.0,48,0.00,,,0.00,WUHU216HW,2013-03-16 21:27:00,
2013-03-16 17:42:00,29.9,13.1,29.88,NW,322,1.1,4.0,49,0.00,,,0.00,WUHU216HW,2013-03-16 21:42:00,
2013-03-16 17:57:00,29.7,12.9,29.88,SE,127,1.4,3.1,49,0.00,,,0.00,WUHU216HW,2013-03-16 21:57:00,
2013-03-16 18:12:00,29.5,13.2,29.88,ESE,104,0.9,2.5,50,0.00,,,0.00,WUHU216HW,2013-03-16 22:12:00,
2013-03-16 18:27:00,29.5,13.2,29.89,NW,315,0.8,2.0,50,0.00,,,0.00,WUHU216HW,2013-03-16 22:27:00,
2013-03-16 18:42:00,29.2,13.3,29.89,NNW,327,1.1,3.1,51,0.00,,,0.00,WUHU216HW,2013-03-16 22:42:00,
2013-03-16 18:57:00,28.8,12.6,29.90,WNW,292,1.6,5.8,50,0.00,,,0.00,WUHU216HW,2013-03-16 22:57:00,
2013-03-16 19:12:00,28.4,12.7,29.90,WSW,246,1.4,3.4,51,0.00,,,0.00,WUHU216HW,2013-03-16 23:12:00,
2013-03-16 19:27:00,28.4,12.2,29.90,West,275,1.0,4.0,50,0.00,,,0.00,WUHU216HW,2013-03-16 23:27:00,
2013-03-16 19:42:00,28.1,12.3,29.91,WSW,256,1.0,3.4,51,0.00,,,0.00,WUHU216HW,2013-03-16 23:42:00,
2013-03-16 19:57:00,28.1,12.3,29.91,SW,231,0.7,1.6,51,0.00,,,0.00,WUHU216HW,2013-03-16 23:57:00,
2013-03-16 20:12:00,28.1,12.7,29.92,WNW,297,1.1,3.6,52,0.00,,,0.00,WUHU216HW,2013-03-17 00:12:00,
2013-03-16 20:27:00,28.1,12.7,29.92,WNW,296,1.3,5.4,52,0.00,,,0.00,WUHU216HW,2013-03-17 00:27:00,
2013-03-16 20:42:00,27.9,12.5,29.93,NW,319,0.8,2.5,52,0.00,,,0.00,WUHU216HW,2013-03-17 00:42:00,
2013-03-16 20:57:00,27.7,12.8,29.93,WNW,292,1.0,3.4,53,0.00,,,0.00,WUHU216HW,2013-03-17 00:57:00,
2013-03-16 21:12:00,27.4,12.4,29.93,WNW,300,1.2,3.4,53,0.00,,,0.00,WUHU216HW,2013-03-17 01:12:00,
2013-03-16 21:27:00,27.2,13.1,29.94,NE,53,1.1,5.4,55,0.00,,,0.00,WUHU216HW,2013-03-17 01:27:00,
2013-03-16 21:42:00,27.0,12.9,29.95,NNW,336,0.7,2.0,55,0.00,,,0.00,WUHU216HW,2013-03-17 01:42:00,
2013-03-16 21:57:00,26.8,12.7,29.95,NW,309,1.0,4.3,55,0.00,,,0.00,WUHU216HW,2013-03-17 01:57:00,
2013-03-16 22:13:00,26.6,12.5,29.95,WNW,290,1.2,6.5,55,0.00,,,0.00,WUHU216HW,2013-03-17 02:13:00,
2013-03-16 22:28:00,26.3,12.2,29.95,WSW,237,0.8,2.7,55,0.00,,,0.00,WUHU216HW,2013-03-17 02:28:00,
2013-03-16 22:43:00,26.1,12.1,29.95,WNW,288,1.6,5.4,55,0.00,,,0.00,WUHU216HW,2013-03-17 02:43:00,
2013-03-16 22:58:00,25.7,12.2,29.95,NE,42,0.4,0.7,56,0.00,,,0.00,WUHU216HW,2013-03-17 02:58:00,
2013-03-16 23:13:00,25.6,12.0,29.96,WNW,293,0.4,0.4,56,0.00,,,0.00,WUHU216HW,2013-03-17 03:13:00,
2013-03-16 23:28:00,25.0,11.9,29.97,SSE,158,0.4,0.9,57,0.00,,,0.00,WUHU216HW,2013-03-17 03:28:00,
2013-03-16 23:43:00,24.7,12.0,29.98,NW,308,0.5,0.9,58,0.00,,,0.00,WUHU216HW,2013-03-17 03:43:00,
2013-03-16 23:58:00,24.3,12.0,29.98,NNW,327,0.3,0.4,59,0.00,,,0.00,WUHU216HW,2013-03-17 03:58:00,